sensor_id;sensor_type;location;lat;lon;timestamp;P1;durP1;ratioP1;P2;durP2;ratioP2
28796;SDS011;24974;54.444;18.560;2023-12-20T00:00:42;3.20;;;1.27;;
28796;SDS011;24974;54.444;18.560;2023-12-20T00:03:13;2.85;;;1.50;;
28796;SDS011;24974;54.444;18.560;2023-12-20T00:05:45;2.05;;;1.20;;
28796;SDS011;24974;54.444;18.560;2023-12-20T00:08:16;1.83;;;1.10;;
28796;SDS011;24974;54.444;18.560;2023-12-20T00:10:47;1.48;;;1.10;;
28796;SDS011;24974;54.444;18.560;2023-12-20T00:13:18;2.05;;;1.20;;
28796;SDS011;24974;54.444;18.560;2023-12-20T00:15:49;3.58;;;2.50;;
28796;SDS011;24974;54.444;18.560;2023-12-20T00:18:20;2.78;;;2.00;;
28796;SDS011;24974;54.444;18.560;2023-12-20T00:20:50;4.15;;;2.35;;
28796;SDS011;24974;54.444;18.560;2023-12-20T00:23:21;5.82;;;4.00;;
28796;SDS011;24974;54.444;18.560;2023-12-20T00:25:53;4.18;;;2.30;;
28796;SDS011;24974;54.444;18.560;2023-12-20T00:28:25;6.93;;;2.80;;
28796;SDS011;24974;54.444;18.560;2023-12-20T00:30:56;2.55;;;1.80;;
28796;SDS011;24974;54.444;18.560;2023-12-20T00:33:27;4.07;;;1.63;;
28796;SDS011;24974;54.444;18.560;2023-12-20T00:35:57;1.40;;;0.60;;
28796;SDS011;24974;54.444;18.560;2023-12-20T00:38:28;1.30;;;0.75;;
28796;SDS011;24974;54.444;18.560;2023-12-20T00:40:59;1.75;;;0.63;;
28796;SDS011;24974;54.444;18.560;2023-12-20T00:43:30;0.88;;;0.55;;
28796;SDS011;24974;54.444;18.560;2023-12-20T00:46:01;3.38;;;0.70;;
28796;SDS011;24974;54.444;18.560;2023-12-20T00:48:32;1.75;;;0.80;;
28796;SDS011;24974;54.444;18.560;2023-12-20T00:51:03;0.60;;;0.52;;
28796;SDS011;24974;54.444;18.560;2023-12-20T00:53:34;1.48;;;0.60;;
28796;SDS011;24974;54.444;18.560;2023-12-20T00:56:04;2.08;;;0.75;;
28796;SDS011;24974;54.444;18.560;2023-12-20T00:58:35;3.03;;;0.60;;
28796;SDS011;24974;54.444;18.560;2023-12-20T01:01:06;0.70;;;0.60;;
28796;SDS011;24974;54.444;18.560;2023-12-20T01:03:37;1.98;;;0.60;;
28796;SDS011;24974;54.444;18.560;2023-12-20T01:06:08;0.85;;;0.60;;
28796;SDS011;24974;54.444;18.560;2023-12-20T01:08:39;1.95;;;0.60;;
28796;SDS011;24974;54.444;18.560;2023-12-20T01:11:09;1.48;;;0.70;;
28796;SDS011;24974;54.444;18.560;2023-12-20T01:13:40;4.25;;;1.00;;
28796;SDS011;24974;54.444;18.560;2023-12-20T01:16:12;1.55;;;0.60;;
28796;SDS011;24974;54.444;18.560;2023-12-20T01:18:43;3.00;;;0.82;;
28796;SDS011;24974;54.444;18.560;2023-12-20T01:21:14;3.55;;;0.93;;
28796;SDS011;24974;54.444;18.560;2023-12-20T01:23:45;2.92;;;0.98;;
28796;SDS011;24974;54.444;18.560;2023-12-20T01:26:16;3.97;;;1.00;;
28796;SDS011;24974;54.444;18.560;2023-12-20T01:28:47;3.53;;;0.90;;
28796;SDS011;24974;54.444;18.560;2023-12-20T01:31:18;7.28;;;1.00;;
28796;SDS011;24974;54.444;18.560;2023-12-20T01:33:48;5.80;;;0.95;;
28796;SDS011;24974;54.444;18.560;2023-12-20T01:36:19;8.13;;;1.48;;
28796;SDS011;24974;54.444;18.560;2023-12-20T01:38:50;4.68;;;1.02;;
28796;SDS011;24974;54.444;18.560;2023-12-20T01:41:21;3.17;;;0.80;;
28796;SDS011;24974;54.444;18.560;2023-12-20T01:43:52;4.75;;;1.23;;
28796;SDS011;24974;54.444;18.560;2023-12-20T01:46:23;8.68;;;1.02;;
28796;SDS011;24974;54.444;18.560;2023-12-20T01:48:55;4.80;;;1.23;;
28796;SDS011;24974;54.444;18.560;2023-12-20T01:51:25;5.30;;;1.10;;
28796;SDS011;24974;54.444;18.560;2023-12-20T01:53:57;7.45;;;1.33;;
28796;SDS011;24974;54.444;18.560;2023-12-20T01:56:30;6.70;;;1.20;;
28796;SDS011;24974;54.444;18.560;2023-12-20T01:59:02;8.30;;;1.30;;
28796;SDS011;24974;54.444;18.560;2023-12-20T02:01:35;8.45;;;1.30;;
28796;SDS011;24974;54.444;18.560;2023-12-20T02:04:06;8.50;;;1.48;;
28796;SDS011;24974;54.444;18.560;2023-12-20T02:06:37;10.50;;;1.45;;
28796;SDS011;24974;54.444;18.560;2023-12-20T02:09:10;9.95;;;1.33;;
28796;SDS011;24974;54.444;18.560;2023-12-20T02:11:42;9.52;;;2.05;;
28796;SDS011;24974;54.444;18.560;2023-12-20T02:14:13;10.23;;;1.73;;
28796;SDS011;24974;54.444;18.560;2023-12-20T02:16:44;8.30;;;2.40;;
28796;SDS011;24974;54.444;18.560;2023-12-20T02:19:15;13.00;;;2.60;;
28796;SDS011;24974;54.444;18.560;2023-12-20T02:21:48;6.18;;;1.40;;
28796;SDS011;24974;54.444;18.560;2023-12-20T02:24:19;9.35;;;2.10;;
28796;SDS011;24974;54.444;18.560;2023-12-20T02:26:49;12.00;;;2.03;;
28796;SDS011;24974;54.444;18.560;2023-12-20T02:29:20;13.20;;;2.17;;
28796;SDS011;24974;54.444;18.560;2023-12-20T02:31:51;14.45;;;1.95;;
28796;SDS011;24974;54.444;18.560;2023-12-20T02:34:22;14.68;;;2.20;;
28796;SDS011;24974;54.444;18.560;2023-12-20T02:36:53;9.52;;;2.00;;
28796;SDS011;24974;54.444;18.560;2023-12-20T02:39:24;11.65;;;1.75;;
28796;SDS011;24974;54.444;18.560;2023-12-20T02:41:54;15.23;;;2.33;;
28796;SDS011;24974;54.444;18.560;2023-12-20T02:44:25;13.80;;;2.00;;
28796;SDS011;24974;54.444;18.560;2023-12-20T02:46:56;18.80;;;2.03;;
28796;SDS011;24974;54.444;18.560;2023-12-20T02:49:27;7.10;;;1.60;;
28796;SDS011;24974;54.444;18.560;2023-12-20T02:51:58;11.23;;;1.63;;
28796;SDS011;24974;54.444;18.560;2023-12-20T02:54:29;10.27;;;2.15;;
28796;SDS011;24974;54.444;18.560;2023-12-20T02:57:00;10.30;;;1.80;;
28796;SDS011;24974;54.444;18.560;2023-12-20T02:59:31;13.30;;;2.05;;
28796;SDS011;24974;54.444;18.560;2023-12-20T03:02:01;10.63;;;1.75;;
28796;SDS011;24974;54.444;18.560;2023-12-20T03:04:32;8.55;;;1.85;;
28796;SDS011;24974;54.444;18.560;2023-12-20T03:07:03;17.45;;;2.58;;
28796;SDS011;24974;54.444;18.560;2023-12-20T03:09:34;14.95;;;2.47;;
28796;SDS011;24974;54.444;18.560;2023-12-20T03:12:05;11.27;;;2.05;;
28796;SDS011;24974;54.444;18.560;2023-12-20T03:14:36;13.77;;;2.08;;
28796;SDS011;24974;54.444;18.560;2023-12-20T03:17:07;12.27;;;2.65;;
28796;SDS011;24974;54.444;18.560;2023-12-20T03:19:38;16.08;;;2.00;;
28796;SDS011;24974;54.444;18.560;2023-12-20T03:22:08;17.05;;;2.00;;
28796;SDS011;24974;54.444;18.560;2023-12-20T03:24:39;16.58;;;2.40;;
28796;SDS011;24974;54.444;18.560;2023-12-20T03:27:10;11.60;;;2.13;;
28796;SDS011;24974;54.444;18.560;2023-12-20T03:29:41;10.25;;;1.80;;
28796;SDS011;24974;54.444;18.560;2023-12-20T03:32:12;7.93;;;1.83;;
28796;SDS011;24974;54.444;18.560;2023-12-20T03:34:43;7.22;;;1.60;;
28796;SDS011;24974;54.444;18.560;2023-12-20T03:37:14;18.08;;;2.38;;
28796;SDS011;24974;54.444;18.560;2023-12-20T03:39:45;13.88;;;2.20;;
28796;SDS011;24974;54.444;18.560;2023-12-20T03:42:16;11.02;;;2.08;;
28796;SDS011;24974;54.444;18.560;2023-12-20T03:44:47;14.75;;;1.98;;
28796;SDS011;24974;54.444;18.560;2023-12-20T03:47:17;11.70;;;2.10;;
28796;SDS011;24974;54.444;18.560;2023-12-20T03:49:48;15.80;;;2.22;;
28796;SDS011;24974;54.444;18.560;2023-12-20T03:52:19;11.48;;;2.45;;
28796;SDS011;24974;54.444;18.560;2023-12-20T03:54:50;16.27;;;2.72;;
28796;SDS011;24974;54.444;18.560;2023-12-20T03:57:21;9.63;;;1.88;;
28796;SDS011;24974;54.444;18.560;2023-12-20T03:59:52;12.43;;;1.70;;
28796;SDS011;24974;54.444;18.560;2023-12-20T04:02:22;13.63;;;2.00;;
28796;SDS011;24974;54.444;18.560;2023-12-20T04:04:53;15.48;;;2.53;;
28796;SDS011;24974;54.444;18.560;2023-12-20T04:07:24;8.13;;;1.65;;
28796;SDS011;24974;54.444;18.560;2023-12-20T04:09:55;10.68;;;1.60;;
28796;SDS011;24974;54.444;18.560;2023-12-20T04:12:26;15.05;;;2.22;;
28796;SDS011;24974;54.444;18.560;2023-12-20T04:14:58;14.70;;;1.60;;
28796;SDS011;24974;54.444;18.560;2023-12-20T04:17:29;11.75;;;1.92;;
28796;SDS011;24974;54.444;18.560;2023-12-20T04:20:00;12.30;;;2.00;;
28796;SDS011;24974;54.444;18.560;2023-12-20T04:22:31;9.35;;;2.35;;
28796;SDS011;24974;54.444;18.560;2023-12-20T04:25:02;10.88;;;2.25;;
28796;SDS011;24974;54.444;18.560;2023-12-20T04:27:33;10.75;;;1.90;;
28796;SDS011;24974;54.444;18.560;2023-12-20T04:30:04;12.20;;;1.73;;
28796;SDS011;24974;54.444;18.560;2023-12-20T04:32:35;15.77;;;2.28;;
28796;SDS011;24974;54.444;18.560;2023-12-20T04:35:06;14.95;;;2.33;;
28796;SDS011;24974;54.444;18.560;2023-12-20T04:37:38;13.88;;;2.33;;
28796;SDS011;24974;54.444;18.560;2023-12-20T04:40:09;8.63;;;2.10;;
28796;SDS011;24974;54.444;18.560;2023-12-20T04:42:40;11.70;;;2.05;;
28796;SDS011;24974;54.444;18.560;2023-12-20T04:45:12;11.00;;;2.40;;
28796;SDS011;24974;54.444;18.560;2023-12-20T04:47:44;8.82;;;1.73;;
28796;SDS011;24974;54.444;18.560;2023-12-20T04:50:14;19.88;;;2.80;;
28796;SDS011;24974;54.444;18.560;2023-12-20T04:52:46;16.27;;;2.42;;
28796;SDS011;24974;54.444;18.560;2023-12-20T04:55:17;8.05;;;2.25;;
28796;SDS011;24974;54.444;18.560;2023-12-20T04:57:48;9.82;;;2.03;;
28796;SDS011;24974;54.444;18.560;2023-12-20T05:00:18;16.33;;;2.42;;
28796;SDS011;24974;54.444;18.560;2023-12-20T05:02:49;12.82;;;2.40;;
28796;SDS011;24974;54.444;18.560;2023-12-20T05:05:20;9.50;;;1.80;;
28796;SDS011;24974;54.444;18.560;2023-12-20T05:07:51;7.70;;;1.73;;
28796;SDS011;24974;54.444;18.560;2023-12-20T05:10:23;15.30;;;2.28;;
28796;SDS011;24974;54.444;18.560;2023-12-20T05:12:53;12.93;;;2.00;;
28796;SDS011;24974;54.444;18.560;2023-12-20T05:15:24;10.30;;;2.55;;
28796;SDS011;24974;54.444;18.560;2023-12-20T05:17:55;14.68;;;2.28;;
28796;SDS011;24974;54.444;18.560;2023-12-20T05:20:26;13.50;;;2.40;;
28796;SDS011;24974;54.444;18.560;2023-12-20T05:22:56;22.52;;;3.35;;
28796;SDS011;24974;54.444;18.560;2023-12-20T05:25:27;12.63;;;2.53;;
28796;SDS011;24974;54.444;18.560;2023-12-20T05:27:58;8.10;;;2.63;;
28796;SDS011;24974;54.444;18.560;2023-12-20T05:30:29;14.57;;;2.63;;
28796;SDS011;24974;54.444;18.560;2023-12-20T05:33:00;13.32;;;1.90;;
28796;SDS011;24974;54.444;18.560;2023-12-20T05:35:31;11.82;;;2.38;;
28796;SDS011;24974;54.444;18.560;2023-12-20T05:38:02;9.48;;;2.83;;
28796;SDS011;24974;54.444;18.560;2023-12-20T05:40:32;10.43;;;2.38;;
28796;SDS011;24974;54.444;18.560;2023-12-20T05:43:03;13.75;;;2.78;;
28796;SDS011;24974;54.444;18.560;2023-12-20T05:45:34;8.98;;;2.10;;
28796;SDS011;24974;54.444;18.560;2023-12-20T05:48:05;9.82;;;1.90;;
28796;SDS011;24974;54.444;18.560;2023-12-20T05:50:36;10.95;;;3.03;;
28796;SDS011;24974;54.444;18.560;2023-12-20T05:53:07;10.27;;;3.17;;
28796;SDS011;24974;54.444;18.560;2023-12-20T05:55:38;12.27;;;3.35;;
28796;SDS011;24974;54.444;18.560;2023-12-20T05:58:09;9.80;;;2.13;;
28796;SDS011;24974;54.444;18.560;2023-12-20T06:00:40;14.00;;;2.55;;
28796;SDS011;24974;54.444;18.560;2023-12-20T06:03:11;16.77;;;2.20;;
28796;SDS011;24974;54.444;18.560;2023-12-20T06:05:41;13.30;;;2.60;;
28796;SDS011;24974;54.444;18.560;2023-12-20T06:08:12;10.27;;;2.15;;
28796;SDS011;24974;54.444;18.560;2023-12-20T06:10:43;12.25;;;2.42;;
28796;SDS011;24974;54.444;18.560;2023-12-20T06:13:13;13.10;;;2.92;;
28796;SDS011;24974;54.444;18.560;2023-12-20T06:15:44;6.45;;;1.80;;
28796;SDS011;24974;54.444;18.560;2023-12-20T06:18:15;6.50;;;2.20;;
28796;SDS011;24974;54.444;18.560;2023-12-20T06:20:46;16.50;;;2.78;;
28796;SDS011;24974;54.444;18.560;2023-12-20T06:23:16;12.57;;;2.47;;
28796;SDS011;24974;54.444;18.560;2023-12-20T06:25:47;8.18;;;2.22;;
28796;SDS011;24974;54.444;18.560;2023-12-20T06:28:18;17.92;;;2.95;;
28796;SDS011;24974;54.444;18.560;2023-12-20T06:30:49;15.85;;;2.42;;
28796;SDS011;24974;54.444;18.560;2023-12-20T06:33:20;10.40;;;2.35;;
28796;SDS011;24974;54.444;18.560;2023-12-20T06:35:52;15.65;;;2.88;;
28796;SDS011;24974;54.444;18.560;2023-12-20T06:38:23;14.30;;;3.08;;
28796;SDS011;24974;54.444;18.560;2023-12-20T06:40:54;11.95;;;2.95;;
28796;SDS011;24974;54.444;18.560;2023-12-20T06:43:25;9.70;;;2.42;;
28796;SDS011;24974;54.444;18.560;2023-12-20T06:45:56;17.65;;;2.92;;
28796;SDS011;24974;54.444;18.560;2023-12-20T06:48:27;16.67;;;2.78;;
28796;SDS011;24974;54.444;18.560;2023-12-20T06:50:59;15.48;;;3.92;;
28796;SDS011;24974;54.444;18.560;2023-12-20T06:53:33;17.38;;;3.08;;
28796;SDS011;24974;54.444;18.560;2023-12-20T06:56:04;13.05;;;2.72;;
28796;SDS011;24974;54.444;18.560;2023-12-20T06:58:35;9.75;;;2.60;;
28796;SDS011;24974;54.444;18.560;2023-12-20T07:01:10;15.90;;;2.70;;
28796;SDS011;24974;54.444;18.560;2023-12-20T07:03:45;16.52;;;2.60;;
28796;SDS011;24974;54.444;18.560;2023-12-20T07:06:16;11.93;;;2.28;;
28796;SDS011;24974;54.444;18.560;2023-12-20T07:08:47;12.90;;;2.50;;
28796;SDS011;24974;54.444;18.560;2023-12-20T07:11:18;12.63;;;2.72;;
28796;SDS011;24974;54.444;18.560;2023-12-20T07:13:49;12.18;;;2.83;;
28796;SDS011;24974;54.444;18.560;2023-12-20T07:16:20;13.80;;;3.22;;
28796;SDS011;24974;54.444;18.560;2023-12-20T07:18:50;17.25;;;3.33;;
28796;SDS011;24974;54.444;18.560;2023-12-20T07:21:22;11.55;;;2.75;;
28796;SDS011;24974;54.444;18.560;2023-12-20T07:23:53;18.95;;;3.78;;
28796;SDS011;24974;54.444;18.560;2023-12-20T07:26:24;15.88;;;3.03;;
28796;SDS011;24974;54.444;18.560;2023-12-20T07:28:55;12.27;;;2.88;;
28796;SDS011;24974;54.444;18.560;2023-12-20T07:31:26;8.98;;;2.78;;
28796;SDS011;24974;54.444;18.560;2023-12-20T07:33:57;12.05;;;3.00;;
28796;SDS011;24974;54.444;18.560;2023-12-20T07:36:28;12.70;;;3.38;;
28796;SDS011;24974;54.444;18.560;2023-12-20T07:38:59;15.45;;;2.97;;
28796;SDS011;24974;54.444;18.560;2023-12-20T07:41:30;20.58;;;3.97;;
28796;SDS011;24974;54.444;18.560;2023-12-20T07:44:01;13.73;;;3.75;;
28796;SDS011;24974;54.444;18.560;2023-12-20T07:46:32;12.73;;;3.58;;
28796;SDS011;24974;54.444;18.560;2023-12-20T07:49:03;13.63;;;3.22;;
28796;SDS011;24974;54.444;18.560;2023-12-20T07:51:36;12.80;;;3.60;;
28796;SDS011;24974;54.444;18.560;2023-12-20T07:54:06;17.88;;;3.10;;
28796;SDS011;24974;54.444;18.560;2023-12-20T07:56:38;16.85;;;3.53;;
28796;SDS011;24974;54.444;18.560;2023-12-20T07:59:10;11.90;;;3.85;;
28796;SDS011;24974;54.444;18.560;2023-12-20T08:01:41;9.38;;;3.42;;
28796;SDS011;24974;54.444;18.560;2023-12-20T08:04:12;12.15;;;3.60;;
28796;SDS011;24974;54.444;18.560;2023-12-20T08:06:43;16.55;;;4.68;;
28796;SDS011;24974;54.444;18.560;2023-12-20T08:09:14;15.32;;;3.63;;
28796;SDS011;24974;54.444;18.560;2023-12-20T08:11:45;19.35;;;4.45;;
28796;SDS011;24974;54.444;18.560;2023-12-20T08:14:17;18.30;;;4.25;;
28796;SDS011;24974;54.444;18.560;2023-12-20T08:16:48;17.50;;;4.00;;
28796;SDS011;24974;54.444;18.560;2023-12-20T08:19:19;14.80;;;3.65;;
28796;SDS011;24974;54.444;18.560;2023-12-20T08:21:49;8.63;;;3.25;;
28796;SDS011;24974;54.444;18.560;2023-12-20T08:24:20;13.23;;;3.42;;
28796;SDS011;24974;54.444;18.560;2023-12-20T08:26:51;18.00;;;3.30;;
28796;SDS011;24974;54.444;18.560;2023-12-20T08:29:22;13.93;;;4.55;;
28796;SDS011;24974;54.444;18.560;2023-12-20T08:31:53;16.35;;;2.75;;
28796;SDS011;24974;54.444;18.560;2023-12-20T08:34:25;13.13;;;3.22;;
28796;SDS011;24974;54.444;18.560;2023-12-20T08:36:56;9.77;;;2.97;;
28796;SDS011;24974;54.444;18.560;2023-12-20T08:39:27;8.13;;;3.05;;
28796;SDS011;24974;54.444;18.560;2023-12-20T08:42:00;10.13;;;2.90;;
28796;SDS011;24974;54.444;18.560;2023-12-20T08:44:33;10.27;;;3.17;;
28796;SDS011;24974;54.444;18.560;2023-12-20T08:47:04;8.80;;;2.60;;
28796;SDS011;24974;54.444;18.560;2023-12-20T08:49:35;11.88;;;2.75;;
28796;SDS011;24974;54.444;18.560;2023-12-20T08:52:06;9.50;;;2.30;;
28796;SDS011;24974;54.444;18.560;2023-12-20T08:54:37;5.05;;;1.92;;
28796;SDS011;24974;54.444;18.560;2023-12-20T08:57:08;10.40;;;2.58;;
28796;SDS011;24974;54.444;18.560;2023-12-20T08:59:39;16.75;;;2.80;;
28796;SDS011;24974;54.444;18.560;2023-12-20T09:02:09;13.43;;;2.78;;
28796;SDS011;24974;54.444;18.560;2023-12-20T09:04:40;9.85;;;2.60;;
28796;SDS011;24974;54.444;18.560;2023-12-20T09:07:20;9.65;;;2.60;;
28796;SDS011;24974;54.444;18.560;2023-12-20T09:09:52;13.05;;;2.38;;
28796;SDS011;24974;54.444;18.560;2023-12-20T09:12:23;19.67;;;3.17;;
28796;SDS011;24974;54.444;18.560;2023-12-20T09:14:55;10.02;;;2.80;;
28796;SDS011;24974;54.444;18.560;2023-12-20T09:17:26;11.45;;;3.30;;
28796;SDS011;24974;54.444;18.560;2023-12-20T09:19:57;15.18;;;2.97;;
28796;SDS011;24974;54.444;18.560;2023-12-20T09:22:29;10.15;;;2.40;;
28796;SDS011;24974;54.444;18.560;2023-12-20T09:25:00;9.00;;;2.65;;
28796;SDS011;24974;54.444;18.560;2023-12-20T09:27:32;15.18;;;3.00;;
28796;SDS011;24974;54.444;18.560;2023-12-20T09:30:03;12.30;;;2.83;;
28796;SDS011;24974;54.444;18.560;2023-12-20T09:32:35;11.15;;;3.08;;
28796;SDS011;24974;54.444;18.560;2023-12-20T09:35:06;8.18;;;2.03;;
28796;SDS011;24974;54.444;18.560;2023-12-20T09:37:39;15.43;;;2.58;;
28796;SDS011;24974;54.444;18.560;2023-12-20T09:40:14;8.57;;;2.75;;
28796;SDS011;24974;54.444;18.560;2023-12-20T09:42:51;9.82;;;2.67;;
28796;SDS011;24974;54.444;18.560;2023-12-20T09:45:27;6.88;;;2.40;;
28796;SDS011;24974;54.444;18.560;2023-12-20T09:48:00;7.15;;;2.38;;
28796;SDS011;24974;54.444;18.560;2023-12-20T09:50:33;7.45;;;2.50;;
28796;SDS011;24974;54.444;18.560;2023-12-20T09:53:04;7.20;;;2.13;;
28796;SDS011;24974;54.444;18.560;2023-12-20T09:55:39;12.27;;;3.45;;
28796;SDS011;24974;54.444;18.560;2023-12-20T09:58:12;8.70;;;3.08;;
28796;SDS011;24974;54.444;18.560;2023-12-20T10:00:43;7.80;;;2.65;;
28796;SDS011;24974;54.444;18.560;2023-12-20T10:03:14;8.38;;;2.80;;
28796;SDS011;24974;54.444;18.560;2023-12-20T10:05:46;10.10;;;3.08;;
28796;SDS011;24974;54.444;18.560;2023-12-20T10:08:20;8.45;;;2.60;;
28796;SDS011;24974;54.444;18.560;2023-12-20T10:10:52;8.05;;;2.90;;
28796;SDS011;24974;54.444;18.560;2023-12-20T10:13:23;12.15;;;2.58;;
28796;SDS011;24974;54.444;18.560;2023-12-20T10:15:55;14.90;;;2.58;;
28796;SDS011;24974;54.444;18.560;2023-12-20T10:18:28;8.73;;;3.15;;
28796;SDS011;24974;54.444;18.560;2023-12-20T10:21:02;7.95;;;2.45;;
28796;SDS011;24974;54.444;18.560;2023-12-20T10:23:33;8.50;;;3.00;;
28796;SDS011;24974;54.444;18.560;2023-12-20T10:26:04;9.32;;;2.53;;
28796;SDS011;24974;54.444;18.560;2023-12-20T10:28:35;10.63;;;3.53;;
28796;SDS011;24974;54.444;18.560;2023-12-20T10:31:07;9.05;;;2.35;;
28796;SDS011;24974;54.444;18.560;2023-12-20T10:33:38;4.03;;;1.85;;
28796;SDS011;24974;54.444;18.560;2023-12-20T10:36:10;6.28;;;2.25;;
28796;SDS011;24974;54.444;18.560;2023-12-20T10:38:43;7.65;;;2.03;;
28796;SDS011;24974;54.444;18.560;2023-12-20T10:41:15;9.32;;;2.13;;
28796;SDS011;24974;54.444;18.560;2023-12-20T10:44:00;5.73;;;1.90;;
28796;SDS011;24974;54.444;18.560;2023-12-20T10:46:33;6.55;;;2.60;;
28796;SDS011;24974;54.444;18.560;2023-12-20T10:49:05;7.68;;;2.30;;
28796;SDS011;24974;54.444;18.560;2023-12-20T10:51:38;11.25;;;2.63;;
28796;SDS011;24974;54.444;18.560;2023-12-20T10:54:09;7.50;;;2.50;;
28796;SDS011;24974;54.444;18.560;2023-12-20T10:56:41;11.15;;;2.92;;
28796;SDS011;24974;54.444;18.560;2023-12-20T10:59:13;8.77;;;2.90;;
28796;SDS011;24974;54.444;18.560;2023-12-20T11:01:50;9.02;;;3.50;;
28796;SDS011;24974;54.444;18.560;2023-12-20T11:04:24;14.45;;;3.90;;
28796;SDS011;24974;54.444;18.560;2023-12-20T11:07:06;15.75;;;4.47;;
28796;SDS011;24974;54.444;18.560;2023-12-20T11:10:31;11.48;;;4.05;;
28796;SDS011;24974;54.444;18.560;2023-12-20T11:12:46;16.67;;;3.97;;
28796;SDS011;24974;54.444;18.560;2023-12-20T11:15:20;11.32;;;4.13;;
28796;SDS011;24974;54.444;18.560;2023-12-20T11:17:56;10.57;;;3.42;;
28796;SDS011;24974;54.444;18.560;2023-12-20T11:20:37;10.93;;;4.70;;
28796;SDS011;24974;54.444;18.560;2023-12-20T11:23:09;10.68;;;4.10;;
28796;SDS011;24974;54.444;18.560;2023-12-20T11:25:47;12.75;;;4.80;;
28796;SDS011;24974;54.444;18.560;2023-12-20T11:28:23;9.43;;;3.80;;
28796;SDS011;24974;54.444;18.560;2023-12-20T11:30:56;16.17;;;5.25;;
28796;SDS011;24974;54.444;18.560;2023-12-20T11:33:38;12.35;;;4.65;;
28796;SDS011;24974;54.444;18.560;2023-12-20T11:36:15;14.73;;;5.07;;
28796;SDS011;24974;54.444;18.560;2023-12-20T11:38:55;9.40;;;4.28;;
28796;SDS011;24974;54.444;18.560;2023-12-20T11:41:27;9.32;;;4.13;;
28796;SDS011;24974;54.444;18.560;2023-12-20T11:43:58;10.18;;;3.90;;
28796;SDS011;24974;54.444;18.560;2023-12-20T11:46:31;11.98;;;4.85;;
28796;SDS011;24974;54.444;18.560;2023-12-20T11:49:02;13.82;;;4.72;;
28796;SDS011;24974;54.444;18.560;2023-12-20T11:51:33;11.40;;;3.85;;
28796;SDS011;24974;54.444;18.560;2023-12-20T11:54:04;9.80;;;4.30;;
28796;SDS011;24974;54.444;18.560;2023-12-20T11:56:36;6.40;;;3.80;;
28796;SDS011;24974;54.444;18.560;2023-12-20T11:59:08;12.82;;;4.30;;
28796;SDS011;24974;54.444;18.560;2023-12-20T12:01:39;9.18;;;4.53;;
28796;SDS011;24974;54.444;18.560;2023-12-20T12:04:10;11.15;;;4.95;;
28796;SDS011;24974;54.444;18.560;2023-12-20T12:06:40;11.07;;;4.93;;
28796;SDS011;24974;54.444;18.560;2023-12-20T12:09:11;10.43;;;4.18;;
28796;SDS011;24974;54.444;18.560;2023-12-20T12:11:42;7.70;;;3.75;;
28796;SDS011;24974;54.444;18.560;2023-12-20T12:14:13;9.52;;;3.22;;
28796;SDS011;24974;54.444;18.560;2023-12-20T12:16:45;7.22;;;3.45;;
28796;SDS011;24974;54.444;18.560;2023-12-20T12:19:22;10.48;;;4.13;;
28796;SDS011;24974;54.444;18.560;2023-12-20T12:22:04;9.65;;;3.92;;
28796;SDS011;24974;54.444;18.560;2023-12-20T12:24:41;11.07;;;4.53;;
28796;SDS011;24974;54.444;18.560;2023-12-20T12:27:12;10.57;;;4.65;;
28796;SDS011;24974;54.444;18.560;2023-12-20T12:32:38;8.60;;;3.67;;
28796;SDS011;24974;54.444;18.560;2023-12-20T12:35:09;9.38;;;3.83;;
28796;SDS011;24974;54.444;18.560;2023-12-20T12:37:40;4.47;;;2.30;;
28796;SDS011;24974;54.444;18.560;2023-12-20T12:40:12;5.72;;;3.03;;
28796;SDS011;24974;54.444;18.560;2023-12-20T12:42:44;6.07;;;3.13;;
28796;SDS011;24974;54.444;18.560;2023-12-20T12:45:16;10.18;;;2.90;;
28796;SDS011;24974;54.444;18.560;2023-12-20T12:47:46;6.35;;;2.45;;
28796;SDS011;24974;54.444;18.560;2023-12-20T12:50:17;5.65;;;2.90;;
28796;SDS011;24974;54.444;18.560;2023-12-20T12:52:48;7.13;;;2.40;;
28796;SDS011;24974;54.444;18.560;2023-12-20T12:55:19;5.63;;;2.22;;
28796;SDS011;24974;54.444;18.560;2023-12-20T12:57:50;6.22;;;2.17;;
28796;SDS011;24974;54.444;18.560;2023-12-20T13:00:21;6.55;;;2.30;;
28796;SDS011;24974;54.444;18.560;2023-12-20T13:02:52;5.22;;;1.90;;
28796;SDS011;24974;54.444;18.560;2023-12-20T13:05:22;4.75;;;2.00;;
28796;SDS011;24974;54.444;18.560;2023-12-20T13:07:53;5.55;;;1.60;;
28796;SDS011;24974;54.444;18.560;2023-12-20T13:10:24;6.43;;;2.22;;
28796;SDS011;24974;54.444;18.560;2023-12-20T13:12:55;3.65;;;2.03;;
28796;SDS011;24974;54.444;18.560;2023-12-20T13:15:26;4.10;;;2.17;;
28796;SDS011;24974;54.444;18.560;2023-12-20T13:17:57;3.63;;;1.92;;
28796;SDS011;24974;54.444;18.560;2023-12-20T13:20:27;3.10;;;1.70;;
28796;SDS011;24974;54.444;18.560;2023-12-20T13:22:58;5.18;;;2.50;;
28796;SDS011;24974;54.444;18.560;2023-12-20T13:25:29;5.13;;;2.13;;
28796;SDS011;24974;54.444;18.560;2023-12-20T13:28:01;2.88;;;1.60;;
28796;SDS011;24974;54.444;18.560;2023-12-20T13:30:34;2.72;;;1.90;;
28796;SDS011;24974;54.444;18.560;2023-12-20T13:33:05;4.20;;;2.35;;
28796;SDS011;24974;54.444;18.560;2023-12-20T13:35:36;5.25;;;2.58;;
28796;SDS011;24974;54.444;18.560;2023-12-20T13:38:07;4.75;;;2.13;;
28796;SDS011;24974;54.444;18.560;2023-12-20T13:40:38;2.63;;;1.63;;
28796;SDS011;24974;54.444;18.560;2023-12-20T13:43:08;4.13;;;2.08;;
28796;SDS011;24974;54.444;18.560;2023-12-20T13:45:42;3.45;;;1.95;;
28796;SDS011;24974;54.444;18.560;2023-12-20T13:48:13;2.35;;;1.50;;
28796;SDS011;24974;54.444;18.560;2023-12-20T13:50:43;3.13;;;1.80;;
28796;SDS011;24974;54.444;18.560;2023-12-20T13:53:14;3.42;;;1.75;;
28796;SDS011;24974;54.444;18.560;2023-12-20T13:55:45;3.33;;;1.63;;
28796;SDS011;24974;54.444;18.560;2023-12-20T13:58:16;4.50;;;2.10;;
28796;SDS011;24974;54.444;18.560;2023-12-20T14:00:46;2.78;;;1.63;;
28796;SDS011;24974;54.444;18.560;2023-12-20T14:03:18;3.67;;;1.70;;
28796;SDS011;24974;54.444;18.560;2023-12-20T14:05:50;3.75;;;1.63;;
28796;SDS011;24974;54.444;18.560;2023-12-20T14:08:20;10.73;;;2.78;;
28796;SDS011;24974;54.444;18.560;2023-12-20T14:10:51;5.13;;;2.17;;
28796;SDS011;24974;54.444;18.560;2023-12-20T14:13:22;4.28;;;1.98;;
28796;SDS011;24974;54.444;18.560;2023-12-20T14:15:53;3.40;;;1.83;;
28796;SDS011;24974;54.444;18.560;2023-12-20T14:18:24;3.60;;;1.90;;
28796;SDS011;24974;54.444;18.560;2023-12-20T14:20:55;3.45;;;1.75;;
28796;SDS011;24974;54.444;18.560;2023-12-20T14:23:26;4.95;;;1.85;;
28796;SDS011;24974;54.444;18.560;2023-12-20T14:25:57;4.50;;;1.80;;
28796;SDS011;24974;54.444;18.560;2023-12-20T14:28:28;3.20;;;1.70;;
28796;SDS011;24974;54.444;18.560;2023-12-20T14:30:59;7.40;;;2.22;;
28796;SDS011;24974;54.444;18.560;2023-12-20T14:33:30;13.30;;;2.47;;
28796;SDS011;24974;54.444;18.560;2023-12-20T14:36:01;4.18;;;1.65;;
28796;SDS011;24974;54.444;18.560;2023-12-20T14:38:35;4.15;;;2.40;;
28796;SDS011;24974;54.444;18.560;2023-12-20T14:41:06;3.28;;;2.03;;
28796;SDS011;24974;54.444;18.560;2023-12-20T14:43:39;4.60;;;2.17;;
28796;SDS011;24974;54.444;18.560;2023-12-20T14:46:09;4.32;;;2.28;;
28796;SDS011;24974;54.444;18.560;2023-12-20T14:48:40;4.53;;;1.90;;
28796;SDS011;24974;54.444;18.560;2023-12-20T14:51:11;4.22;;;2.13;;
28796;SDS011;24974;54.444;18.560;2023-12-20T14:53:43;4.82;;;2.50;;
28796;SDS011;24974;54.444;18.560;2023-12-20T14:56:14;5.40;;;2.70;;